sensor_id;sensor_type;location;lat;lon;timestamp;temperature;humidity
40534;DHT22;26233;51.894;10.192;2023-12-20T00:02:05;8.30;56.30
40534;DHT22;26233;51.894;10.192;2023-12-20T00:04:32;8.30;56.30
40534;DHT22;26233;51.894;10.192;2023-12-20T00:06:59;8.40;56.40
40534;DHT22;26233;51.894;10.192;2023-12-20T00:09:27;8.50;56.50
40534;DHT22;26233;51.894;10.192;2023-12-20T00:11:55;8.40;56.50
40534;DHT22;26233;51.894;10.192;2023-12-20T00:14:22;8.40;56.50
40534;DHT22;26233;51.894;10.192;2023-12-20T00:16:49;8.40;56.50
40534;DHT22;26233;51.894;10.192;2023-12-20T00:19:16;8.40;56.40
40534;DHT22;26233;51.894;10.192;2023-12-20T00:21:43;8.40;56.40
40534;DHT22;26233;51.894;10.192;2023-12-20T00:24:10;8.40;56.30
40534;DHT22;26233;51.894;10.192;2023-12-20T00:26:37;8.40;56.30
40534;DHT22;26233;51.894;10.192;2023-12-20T00:29:06;8.40;56.40
40534;DHT22;26233;51.894;10.192;2023-12-20T00:31:33;8.40;56.40
40534;DHT22;26233;51.894;10.192;2023-12-20T00:34:00;8.40;56.40
40534;DHT22;26233;51.894;10.192;2023-12-20T00:36:27;8.40;56.30
40534;DHT22;26233;51.894;10.192;2023-12-20T00:38:54;8.40;56.30
40534;DHT22;26233;51.894;10.192;2023-12-20T00:41:21;8.40;56.40
40534;DHT22;26233;51.894;10.192;2023-12-20T00:43:48;8.40;56.30
40534;DHT22;26233;51.894;10.192;2023-12-20T00:46:16;8.40;56.30
40534;DHT22;26233;51.894;10.192;2023-12-20T00:48:43;8.40;56.40
40534;DHT22;26233;51.894;10.192;2023-12-20T00:51:11;8.40;56.40
40534;DHT22;26233;51.894;10.192;2023-12-20T00:53:38;8.40;56.40
40534;DHT22;26233;51.894;10.192;2023-12-20T00:56:05;8.40;56.40
40534;DHT22;26233;51.894;10.192;2023-12-20T00:58:32;8.40;56.40
40534;DHT22;26233;51.894;10.192;2023-12-20T01:00:59;8.40;56.40
40534;DHT22;26233;51.894;10.192;2023-12-20T01:03:28;8.30;56.30
40534;DHT22;26233;51.894;10.192;2023-12-20T01:05:55;8.40;56.50
40534;DHT22;26233;51.894;10.192;2023-12-20T01:08:23;8.40;56.90
40534;DHT22;26233;51.894;10.192;2023-12-20T01:10:50;8.30;56.50
40534;DHT22;26233;51.894;10.192;2023-12-20T01:13:17;8.40;56.60
40534;DHT22;26233;51.894;10.192;2023-12-20T01:15:44;8.40;56.60
40534;DHT22;26233;51.894;10.192;2023-12-20T01:18:11;8.40;56.60
40534;DHT22;26233;51.894;10.192;2023-12-20T01:20:39;8.40;56.60
40534;DHT22;26233;51.894;10.192;2023-12-20T01:23:06;8.40;56.50
40534;DHT22;26233;51.894;10.192;2023-12-20T01:25:33;8.40;56.50
40534;DHT22;26233;51.894;10.192;2023-12-20T01:28:00;8.40;56.50
40534;DHT22;26233;51.894;10.192;2023-12-20T01:30:28;8.40;56.60
40534;DHT22;26233;51.894;10.192;2023-12-20T01:32:55;8.50;56.70
40534;DHT22;26233;51.894;10.192;2023-12-20T01:35:22;8.50;56.70
40534;DHT22;26233;51.894;10.192;2023-12-20T01:37:51;8.50;56.70
40534;DHT22;26233;51.894;10.192;2023-12-20T01:40:22;8.50;56.80
40534;DHT22;26233;51.894;10.192;2023-12-20T01:42:58;8.50;56.80
40534;DHT22;26233;51.894;10.192;2023-12-20T01:45:25;8.50;56.80
40534;DHT22;26233;51.894;10.192;2023-12-20T01:47:53;8.60;56.80
40534;DHT22;26233;51.894;10.192;2023-12-20T01:50:20;8.60;56.80
40534;DHT22;26233;51.894;10.192;2023-12-20T01:52:48;8.60;56.90
40534;DHT22;26233;51.894;10.192;2023-12-20T01:55:19;8.60;56.90
40534;DHT22;26233;51.894;10.192;2023-12-20T01:57:47;8.60;56.90
40534;DHT22;26233;51.894;10.192;2023-12-20T02:00:15;8.70;56.90
40534;DHT22;26233;51.894;10.192;2023-12-20T02:02:43;8.70;56.90
40534;DHT22;26233;51.894;10.192;2023-12-20T02:05:12;8.70;56.90
40534;DHT22;26233;51.894;10.192;2023-12-20T02:07:39;8.70;56.90
40534;DHT22;26233;51.894;10.192;2023-12-20T02:10:07;8.70;56.90
40534;DHT22;26233;51.894;10.192;2023-12-20T02:12:36;8.70;56.90
40534;DHT22;26233;51.894;10.192;2023-12-20T02:15:03;8.70;56.80
40534;DHT22;26233;51.894;10.192;2023-12-20T02:17:32;8.80;56.90
40534;DHT22;26233;51.894;10.192;2023-12-20T02:19:59;8.80;56.90
40534;DHT22;26233;51.894;10.192;2023-12-20T02:22:27;8.80;56.90
40534;DHT22;26233;51.894;10.192;2023-12-20T02:24:54;8.80;56.90
40534;DHT22;26233;51.894;10.192;2023-12-20T02:27:22;8.80;56.80
40534;DHT22;26233;51.894;10.192;2023-12-20T02:29:50;8.80;56.80
40534;DHT22;26233;51.894;10.192;2023-12-20T02:32:17;8.80;56.70
40534;DHT22;26233;51.894;10.192;2023-12-20T02:34:47;8.80;56.60
40534;DHT22;26233;51.894;10.192;2023-12-20T02:37:14;8.80;56.50
40534;DHT22;26233;51.894;10.192;2023-12-20T02:39:43;8.80;56.40
40534;DHT22;26233;51.894;10.192;2023-12-20T02:42:10;8.80;56.40
40534;DHT22;26233;51.894;10.192;2023-12-20T02:44:37;8.70;56.20
40534;DHT22;26233;51.894;10.192;2023-12-20T02:47:04;8.70;56.20
40534;DHT22;26233;51.894;10.192;2023-12-20T02:49:31;8.70;56.30
40534;DHT22;26233;51.894;10.192;2023-12-20T02:51:58;8.70;56.30
40534;DHT22;26233;51.894;10.192;2023-12-20T02:54:25;8.70;56.20
40534;DHT22;26233;51.894;10.192;2023-12-20T02:56:53;8.60;56.10
40534;DHT22;26233;51.894;10.192;2023-12-20T02:59:20;8.60;56.10
40534;DHT22;26233;51.894;10.192;2023-12-20T03:01:47;8.60;56.10
40534;DHT22;26233;51.894;10.192;2023-12-20T03:04:14;8.60;56.10
40534;DHT22;26233;51.894;10.192;2023-12-20T03:06:41;8.60;56.10
40534;DHT22;26233;51.894;10.192;2023-12-20T03:09:08;8.60;56.20
40534;DHT22;26233;51.894;10.192;2023-12-20T03:11:35;8.60;56.30
40534;DHT22;26233;51.894;10.192;2023-12-20T03:14:04;8.60;56.20
40534;DHT22;26233;51.894;10.192;2023-12-20T03:16:31;8.60;56.20
40534;DHT22;26233;51.894;10.192;2023-12-20T03:18:58;8.70;56.30
40534;DHT22;26233;51.894;10.192;2023-12-20T03:21:25;8.60;56.20
40534;DHT22;26233;51.894;10.192;2023-12-20T03:23:52;8.60;56.10
40534;DHT22;26233;51.894;10.192;2023-12-20T03:26:19;8.70;56.20
40534;DHT22;26233;51.894;10.192;2023-12-20T03:28:47;8.70;56.20
40534;DHT22;26233;51.894;10.192;2023-12-20T03:31:16;8.70;56.20
40534;DHT22;26233;51.894;10.192;2023-12-20T03:33:43;8.70;56.20
40534;DHT22;26233;51.894;10.192;2023-12-20T03:36:10;8.70;56.10
40534;DHT22;26233;51.894;10.192;2023-12-20T03:38:37;8.70;56.10
40534;DHT22;26233;51.894;10.192;2023-12-20T03:41:04;8.70;56.10
40534;DHT22;26233;51.894;10.192;2023-12-20T03:43:31;8.70;56.00
40534;DHT22;26233;51.894;10.192;2023-12-20T03:45:58;8.70;56.00
40534;DHT22;26233;51.894;10.192;2023-12-20T03:48:27;8.70;56.00
40534;DHT22;26233;51.894;10.192;2023-12-20T03:50:53;8.70;56.00
40534;DHT22;26233;51.894;10.192;2023-12-20T03:53:20;8.70;56.00
40534;DHT22;26233;51.894;10.192;2023-12-20T03:55:48;8.70;56.00
40534;DHT22;26233;51.894;10.192;2023-12-20T03:58:15;8.70;56.00
40534;DHT22;26233;51.894;10.192;2023-12-20T04:00:42;8.70;56.50
40534;DHT22;26233;51.894;10.192;2023-12-20T04:03:09;8.70;55.90
40534;DHT22;26233;51.894;10.192;2023-12-20T04:05:39;8.70;55.90
40534;DHT22;26233;51.894;10.192;2023-12-20T04:08:07;8.70;55.80
40534;DHT22;26233;51.894;10.192;2023-12-20T04:10:35;8.70;55.80
40534;DHT22;26233;51.894;10.192;2023-12-20T04:13:03;8.70;55.70
40534;DHT22;26233;51.894;10.192;2023-12-20T04:15:30;8.70;55.60
40534;DHT22;26233;51.894;10.192;2023-12-20T04:17:57;8.70;55.50
40534;DHT22;26233;51.894;10.192;2023-12-20T04:20:24;8.60;55.40
40534;DHT22;26233;51.894;10.192;2023-12-20T04:22:52;8.60;55.30
40534;DHT22;26233;51.894;10.192;2023-12-20T04:25:19;8.60;55.20
40534;DHT22;26233;51.894;10.192;2023-12-20T04:27:47;8.50;55.10
40534;DHT22;26233;51.894;10.192;2023-12-20T04:30:14;8.50;55.00
40534;DHT22;26233;51.894;10.192;2023-12-20T04:32:41;8.40;55.00
40534;DHT22;26233;51.894;10.192;2023-12-20T04:35:08;8.40;55.00
40534;DHT22;26233;51.894;10.192;2023-12-20T04:37:35;8.30;55.10
40534;DHT22;26233;51.894;10.192;2023-12-20T04:40:04;8.30;55.20
40534;DHT22;26233;51.894;10.192;2023-12-20T04:42:33;8.30;55.30
40534;DHT22;26233;51.894;10.192;2023-12-20T04:45:00;8.30;56.00
40534;DHT22;26233;51.894;10.192;2023-12-20T04:47:27;8.30;55.40
40534;DHT22;26233;51.894;10.192;2023-12-20T04:49:54;8.30;55.50
40534;DHT22;26233;51.894;10.192;2023-12-20T04:52:21;8.30;55.50
40534;DHT22;26233;51.894;10.192;2023-12-20T04:54:48;8.30;55.50
40534;DHT22;26233;51.894;10.192;2023-12-20T04:57:16;8.30;55.40
40534;DHT22;26233;51.894;10.192;2023-12-20T04:59:44;8.30;55.40
40534;DHT22;26233;51.894;10.192;2023-12-20T05:02:11;8.30;55.40
40534;DHT22;26233;51.894;10.192;2023-12-20T05:04:38;8.30;55.30
40534;DHT22;26233;51.894;10.192;2023-12-20T05:07:05;8.30;55.30
40534;DHT22;26233;51.894;10.192;2023-12-20T05:09:32;8.30;55.20
40534;DHT22;26233;51.894;10.192;2023-12-20T05:11:59;8.30;55.20
40534;DHT22;26233;51.894;10.192;2023-12-20T05:14:28;8.30;55.10
40534;DHT22;26233;51.894;10.192;2023-12-20T05:16:56;8.30;55.10
40534;DHT22;26233;51.894;10.192;2023-12-20T05:19:23;8.30;55.00
40534;DHT22;26233;51.894;10.192;2023-12-20T05:21:50;8.30;55.00
40534;DHT22;26233;51.894;10.192;2023-12-20T05:24:17;8.20;54.90
40534;DHT22;26233;51.894;10.192;2023-12-20T05:26:44;8.30;55.10
40534;DHT22;26233;51.894;10.192;2023-12-20T05:29:11;8.20;55.50
40534;DHT22;26233;51.894;10.192;2023-12-20T05:31:39;8.20;55.00
40534;DHT22;26233;51.894;10.192;2023-12-20T05:34:06;8.20;55.00
40534;DHT22;26233;51.894;10.192;2023-12-20T05:36:33;8.20;55.00
40534;DHT22;26233;51.894;10.192;2023-12-20T05:39:00;8.20;55.10
40534;DHT22;26233;51.894;10.192;2023-12-20T05:41:29;8.20;55.10
40534;DHT22;26233;51.894;10.192;2023-12-20T05:43:57;8.20;55.10
40534;DHT22;26233;51.894;10.192;2023-12-20T05:46:24;8.30;55.10
40534;DHT22;26233;51.894;10.192;2023-12-20T05:48:54;8.30;54.70
40534;DHT22;26233;51.894;10.192;2023-12-20T05:51:21;8.30;55.10
40534;DHT22;26233;51.894;10.192;2023-12-20T05:53:48;8.30;55.10
40534;DHT22;26233;51.894;10.192;2023-12-20T05:56:15;8.30;55.10
40534;DHT22;26233;51.894;10.192;2023-12-20T05:58:42;8.30;55.00
40534;DHT22;26233;51.894;10.192;2023-12-20T06:01:10;8.30;55.10
40534;DHT22;26233;51.894;10.192;2023-12-20T06:03:40;8.30;55.00
40534;DHT22;26233;51.894;10.192;2023-12-20T06:06:10;8.40;55.10
40534;DHT22;26233;51.894;10.192;2023-12-20T06:08:38;8.40;55.00
40534;DHT22;26233;51.894;10.192;2023-12-20T06:11:05;8.40;55.00
40534;DHT22;26233;51.894;10.192;2023-12-20T06:13:32;8.40;55.00
40534;DHT22;26233;51.894;10.192;2023-12-20T06:15:59;8.40;55.00
40534;DHT22;26233;51.894;10.192;2023-12-20T06:18:26;8.40;54.90
40534;DHT22;26233;51.894;10.192;2023-12-20T06:20:53;8.40;54.90
40534;DHT22;26233;51.894;10.192;2023-12-20T06:23:22;8.40;55.00
40534;DHT22;26233;51.894;10.192;2023-12-20T06:25:49;8.40;54.90
40534;DHT22;26233;51.894;10.192;2023-12-20T06:28:16;8.40;54.90
40534;DHT22;26233;51.894;10.192;2023-12-20T06:30:43;8.40;55.00
40534;DHT22;26233;51.894;10.192;2023-12-20T06:33:12;8.40;54.90
40534;DHT22;26233;51.894;10.192;2023-12-20T06:35:39;8.40;54.90
40534;DHT22;26233;51.894;10.192;2023-12-20T06:38:06;8.40;54.90
40534;DHT22;26233;51.894;10.192;2023-12-20T06:40:35;8.40;54.90
40534;DHT22;26233;51.894;10.192;2023-12-20T06:43:02;8.40;54.80
40534;DHT22;26233;51.894;10.192;2023-12-20T06:45:30;8.40;54.90
40534;DHT22;26233;51.894;10.192;2023-12-20T06:47:57;8.40;54.90
40534;DHT22;26233;51.894;10.192;2023-12-20T06:50:24;8.40;54.90
40534;DHT22;26233;51.894;10.192;2023-12-20T06:52:51;8.40;54.90
40534;DHT22;26233;51.894;10.192;2023-12-20T06:55:18;8.40;54.90
40534;DHT22;26233;51.894;10.192;2023-12-20T06:57:47;8.40;54.90
40534;DHT22;26233;51.894;10.192;2023-12-20T07:00:14;8.40;54.90
40534;DHT22;26233;51.894;10.192;2023-12-20T07:02:44;8.40;54.90
40534;DHT22;26233;51.894;10.192;2023-12-20T07:05:15;8.40;54.90
40534;DHT22;26233;51.894;10.192;2023-12-20T07:07:45;8.40;54.80
40534;DHT22;26233;51.894;10.192;2023-12-20T07:10:13;8.40;54.90
40534;DHT22;26233;51.894;10.192;2023-12-20T07:12:40;8.40;54.90
40534;DHT22;26233;51.894;10.192;2023-12-20T07:15:09;8.40;54.80
40534;DHT22;26233;51.894;10.192;2023-12-20T07:17:36;8.40;54.90
40534;DHT22;26233;51.894;10.192;2023-12-20T07:20:04;8.40;54.90
40534;DHT22;26233;51.894;10.192;2023-12-20T07:22:35;8.40;55.00
40534;DHT22;26233;51.894;10.192;2023-12-20T07:25:02;8.30;54.90
40534;DHT22;26233;51.894;10.192;2023-12-20T07:27:29;8.30;54.90
40534;DHT22;26233;51.894;10.192;2023-12-20T07:29:56;8.40;55.00
40534;DHT22;26233;51.894;10.192;2023-12-20T07:32:25;8.30;54.90
40534;DHT22;26233;51.894;10.192;2023-12-20T07:34:52;8.30;54.90
40534;DHT22;26233;51.894;10.192;2023-12-20T07:37:20;8.20;54.90
40534;DHT22;26233;51.894;10.192;2023-12-20T07:39:47;8.20;55.00
40534;DHT22;26233;51.894;10.192;2023-12-20T07:42:14;8.20;55.00
40534;DHT22;26233;51.894;10.192;2023-12-20T07:44:41;8.20;55.00
40534;DHT22;26233;51.894;10.192;2023-12-20T07:47:08;8.20;55.10
40534;DHT22;26233;51.894;10.192;2023-12-20T07:49:37;8.20;55.10
40534;DHT22;26233;51.894;10.192;2023-12-20T07:52:05;8.20;55.10
40534;DHT22;26233;51.894;10.192;2023-12-20T07:54:33;8.20;55.10
40534;DHT22;26233;51.894;10.192;2023-12-20T07:57:00;8.20;55.10
40534;DHT22;26233;51.894;10.192;2023-12-20T07:59:27;8.30;55.10
40534;DHT22;26233;51.894;10.192;2023-12-20T08:01:54;8.30;55.20
40534;DHT22;26233;51.894;10.192;2023-12-20T08:04:21;8.30;55.20
40534;DHT22;26233;51.894;10.192;2023-12-20T08:06:50;8.30;55.10
40534;DHT22;26233;51.894;10.192;2023-12-20T08:09:17;8.30;55.00
40534;DHT22;26233;51.894;10.192;2023-12-20T08:11:45;8.30;55.00
40534;DHT22;26233;51.894;10.192;2023-12-20T08:14:12;8.30;55.10
40534;DHT22;26233;51.894;10.192;2023-12-20T08:16:39;8.30;55.10
40534;DHT22;26233;51.894;10.192;2023-12-20T08:19:06;8.30;55.00
40534;DHT22;26233;51.894;10.192;2023-12-20T08:21:33;8.30;55.00
40534;DHT22;26233;51.894;10.192;2023-12-20T08:24:02;8.30;55.00
40534;DHT22;26233;51.894;10.192;2023-12-20T08:26:29;8.30;55.00
40534;DHT22;26233;51.894;10.192;2023-12-20T08:28:56;8.40;55.00
40534;DHT22;26233;51.894;10.192;2023-12-20T08:31:23;8.30;54.90
40534;DHT22;26233;51.894;10.192;2023-12-20T08:33:51;8.40;54.90
40534;DHT22;26233;51.894;10.192;2023-12-20T08:36:19;8.40;54.90
40534;DHT22;26233;51.894;10.192;2023-12-20T08:38:48;8.30;54.80
40534;DHT22;26233;51.894;10.192;2023-12-20T08:41:17;8.40;54.90
40534;DHT22;26233;51.894;10.192;2023-12-20T08:43:44;8.40;54.90
40534;DHT22;26233;51.894;10.192;2023-12-20T08:46:11;8.40;54.90
40534;DHT22;26233;51.894;10.192;2023-12-20T08:48:39;8.40;54.80
40534;DHT22;26233;51.894;10.192;2023-12-20T08:51:06;8.40;54.80
40534;DHT22;26233;51.894;10.192;2023-12-20T08:53:34;8.40;54.80
40534;DHT22;26233;51.894;10.192;2023-12-20T08:56:02;8.40;54.80
40534;DHT22;26233;51.894;10.192;2023-12-20T08:58:30;8.40;54.80
40534;DHT22;26233;51.894;10.192;2023-12-20T09:00:59;8.40;54.70
40534;DHT22;26233;51.894;10.192;2023-12-20T09:03:26;8.40;54.70
40534;DHT22;26233;51.894;10.192;2023-12-20T09:05:53;8.40;54.70
40534;DHT22;26233;51.894;10.192;2023-12-20T09:08:20;8.40;54.70
40534;DHT22;26233;51.894;10.192;2023-12-20T09:10:47;8.40;54.80
40534;DHT22;26233;51.894;10.192;2023-12-20T09:13:14;8.40;55.30
40534;DHT22;26233;51.894;10.192;2023-12-20T09:15:42;8.40;54.80
40534;DHT22;26233;51.894;10.192;2023-12-20T09:18:09;8.40;54.70
40534;DHT22;26233;51.894;10.192;2023-12-20T09:20:37;8.40;54.70
40534;DHT22;26233;51.894;10.192;2023-12-20T09:23:04;8.40;55.30
40534;DHT22;26233;51.894;10.192;2023-12-20T09:25:31;8.40;54.70
40534;DHT22;26233;51.894;10.192;2023-12-20T09:27:58;8.40;54.70
40534;DHT22;26233;51.894;10.192;2023-12-20T09:30:25;8.40;54.60
40534;DHT22;26233;51.894;10.192;2023-12-20T09:32:53;8.30;54.60
40534;DHT22;26233;51.894;10.192;2023-12-20T09:35:20;8.40;54.80
40534;DHT22;26233;51.894;10.192;2023-12-20T09:37:47;8.40;54.80
40534;DHT22;26233;51.894;10.192;2023-12-20T09:40:18;8.30;54.80
40534;DHT22;26233;51.894;10.192;2023-12-20T09:42:48;8.30;54.70
40534;DHT22;26233;51.894;10.192;2023-12-20T09:45:19;8.40;55.40
40534;DHT22;26233;51.894;10.192;2023-12-20T09:47:48;8.40;54.80
40534;DHT22;26233;51.894;10.192;2023-12-20T09:50:18;8.40;54.80
40534;DHT22;26233;51.894;10.192;2023-12-20T09:52:50;8.30;54.70
40534;DHT22;26233;51.894;10.192;2023-12-20T09:55:18;8.30;54.60
40534;DHT22;26233;51.894;10.192;2023-12-20T09:57:46;8.40;55.30
40534;DHT22;26233;51.894;10.192;2023-12-20T10:00:13;8.40;54.70
40534;DHT22;26233;51.894;10.192;2023-12-20T10:02:46;8.40;54.70
40534;DHT22;26233;51.894;10.192;2023-12-20T10:05:18;8.40;54.70
40534;DHT22;26233;51.894;10.192;2023-12-20T10:07:46;8.40;54.80
40534;DHT22;26233;51.894;10.192;2023-12-20T10:10:14;8.40;54.70
40534;DHT22;26233;51.894;10.192;2023-12-20T10:13:01;8.40;54.70
40534;DHT22;26233;51.894;10.192;2023-12-20T10:15:29;8.40;54.50
40534;DHT22;26233;51.894;10.192;2023-12-20T10:17:57;8.40;55.30
40534;DHT22;26233;51.894;10.192;2023-12-20T10:20:25;8.40;54.60
40534;DHT22;26233;51.894;10.192;2023-12-20T10:22:54;8.40;54.60
40534;DHT22;26233;51.894;10.192;2023-12-20T10:25:21;8.30;54.60
40534;DHT22;26233;51.894;10.192;2023-12-20T10:27:50;8.40;54.80
40534;DHT22;26233;51.894;10.192;2023-12-20T10:30:17;8.40;54.70
40534;DHT22;26233;51.894;10.192;2023-12-20T10:32:44;8.40;54.70
40534;DHT22;26233;51.894;10.192;2023-12-20T10:35:11;8.40;54.70
40534;DHT22;26233;51.894;10.192;2023-12-20T10:37:40;8.30;54.70
40534;DHT22;26233;51.894;10.192;2023-12-20T10:40:08;8.30;54.70
40534;DHT22;26233;51.894;10.192;2023-12-20T10:42:37;8.30;54.70
40534;DHT22;26233;51.894;10.192;2023-12-20T10:45:06;8.30;54.80
40534;DHT22;26233;51.894;10.192;2023-12-20T10:47:35;8.40;54.90
40534;DHT22;26233;51.894;10.192;2023-12-20T10:50:05;8.40;55.00
40534;DHT22;26233;51.894;10.192;2023-12-20T10:52:36;8.40;55.00
40534;DHT22;26233;51.894;10.192;2023-12-20T10:55:06;8.40;54.90
40534;DHT22;26233;51.894;10.192;2023-12-20T10:57:35;8.40;54.90
40534;DHT22;26233;51.894;10.192;2023-12-20T11:00:04;8.40;54.90
40534;DHT22;26233;51.894;10.192;2023-12-20T11:02:39;8.50;54.90
40534;DHT22;26233;51.894;10.192;2023-12-20T11:05:13;8.50;54.80
40534;DHT22;26233;51.894;10.192;2023-12-20T11:07:52;8.50;54.50
40534;DHT22;26233;51.894;10.192;2023-12-20T11:10:26;8.50;54.80
40534;DHT22;26233;51.894;10.192;2023-12-20T11:13:01;8.50;54.80
40534;DHT22;26233;51.894;10.192;2023-12-20T11:15:35;8.50;54.80
40534;DHT22;26233;51.894;10.192;2023-12-20T11:18:04;8.60;54.90
40534;DHT22;26233;51.894;10.192;2023-12-20T11:20:36;8.50;54.70
40534;DHT22;26233;51.894;10.192;2023-12-20T11:23:04;8.50;54.70
40534;DHT22;26233;51.894;10.192;2023-12-20T11:25:50;8.50;54.70
40534;DHT22;26233;51.894;10.192;2023-12-20T11:28:21;8.50;54.60
40534;DHT22;26233;51.894;10.192;2023-12-20T11:30:51;8.50;54.70
40534;DHT22;26233;51.894;10.192;2023-12-20T11:33:22;8.50;54.80
40534;DHT22;26233;51.894;10.192;2023-12-20T11:35:49;8.50;54.80
40534;DHT22;26233;51.894;10.192;2023-12-20T11:38:20;8.50;54.80
40534;DHT22;26233;51.894;10.192;2023-12-20T11:40:50;8.50;54.80
40534;DHT22;26233;51.894;10.192;2023-12-20T11:43:30;8.50;54.80
40534;DHT22;26233;51.894;10.192;2023-12-20T11:46:03;8.60;54.80
40534;DHT22;26233;51.894;10.192;2023-12-20T11:48:31;8.50;54.90
40534;DHT22;26233;51.894;10.192;2023-12-20T11:50:58;8.50;54.90
40534;DHT22;26233;51.894;10.192;2023-12-20T11:53:25;8.50;54.90
40534;DHT22;26233;51.894;10.192;2023-12-20T11:55:55;8.50;54.90
40534;DHT22;26233;51.894;10.192;2023-12-20T11:58:22;8.50;55.00
40534;DHT22;26233;51.894;10.192;2023-12-20T12:00:50;8.50;55.00
40534;DHT22;26233;51.894;10.192;2023-12-20T12:03:17;8.50;55.00
40534;DHT22;26233;51.894;10.192;2023-12-20T12:05:47;8.50;55.00
40534;DHT22;26233;51.894;10.192;2023-12-20T12:08:14;8.50;55.00
40534;DHT22;26233;51.894;10.192;2023-12-20T12:10:41;8.50;55.00
40534;DHT22;26233;51.894;10.192;2023-12-20T12:13:10;8.50;55.00
40534;DHT22;26233;51.894;10.192;2023-12-20T12:15:37;8.50;55.10
40534;DHT22;26233;51.894;10.192;2023-12-20T12:18:05;8.50;55.10
40534;DHT22;26233;51.894;10.192;2023-12-20T12:20:33;8.50;55.20
40534;DHT22;26233;51.894;10.192;2023-12-20T12:23:01;8.50;55.20
40534;DHT22;26233;51.894;10.192;2023-12-20T12:25:31;8.50;55.20
40534;DHT22;26233;51.894;10.192;2023-12-20T12:27:58;8.50;55.40
40534;DHT22;26233;51.894;10.192;2023-12-20T12:30:27;8.50;55.30
40534;DHT22;26233;51.894;10.192;2023-12-20T12:32:56;8.60;55.40
40534;DHT22;26233;51.894;10.192;2023-12-20T12:35:23;8.60;55.40
40534;DHT22;26233;51.894;10.192;2023-12-20T12:37:51;8.60;55.40
40534;DHT22;26233;51.894;10.192;2023-12-20T12:40:18;8.60;55.40
40534;DHT22;26233;51.894;10.192;2023-12-20T12:42:46;8.60;56.00
40534;DHT22;26233;51.894;10.192;2023-12-20T12:45:13;8.60;55.40
40534;DHT22;26233;51.894;10.192;2023-12-20T12:47:42;8.70;55.50
40534;DHT22;26233;51.894;10.192;2023-12-20T12:50:09;8.70;55.50
40534;DHT22;26233;51.894;10.192;2023-12-20T12:52:36;8.70;55.50
40534;DHT22;26233;51.894;10.192;2023-12-20T12:55:04;8.70;55.50
40534;DHT22;26233;51.894;10.192;2023-12-20T12:57:31;8.70;55.50
40534;DHT22;26233;51.894;10.192;2023-12-20T12:59:59;8.70;55.50
40534;DHT22;26233;51.894;10.192;2023-12-20T13:02:26;8.70;55.50
40534;DHT22;26233;51.894;10.192;2023-12-20T13:04:54;8.70;55.50
40534;DHT22;26233;51.894;10.192;2023-12-20T13:07:21;8.80;55.60
40534;DHT22;26233;51.894;10.192;2023-12-20T13:09:48;8.80;55.60
40534;DHT22;26233;51.894;10.192;2023-12-20T13:12:15;8.80;55.50
40534;DHT22;26233;51.894;10.192;2023-12-20T13:14:42;8.80;55.50
40534;DHT22;26233;51.894;10.192;2023-12-20T13:17:11;8.80;55.60
40534;DHT22;26233;51.894;10.192;2023-12-20T13:19:38;8.80;55.60
40534;DHT22;26233;51.894;10.192;2023-12-20T13:22:06;8.80;55.60
40534;DHT22;26233;51.894;10.192;2023-12-20T13:24:33;8.80;55.50
40534;DHT22;26233;51.894;10.192;2023-12-20T13:27:00;8.90;55.70
40534;DHT22;26233;51.894;10.192;2023-12-20T13:29:28;8.90;55.60
40534;DHT22;26233;51.894;10.192;2023-12-20T13:31:55;8.90;55.50
40534;DHT22;26233;51.894;10.192;2023-12-20T13:34:22;8.90;55.50
40534;DHT22;26233;51.894;10.192;2023-12-20T13:36:49;8.90;55.50
40534;DHT22;26233;51.894;10.192;2023-12-20T13:39:17;8.90;55.50
40534;DHT22;26233;51.894;10.192;2023-12-20T13:41:44;8.90;55.40
40534;DHT22;26233;51.894;10.192;2023-12-20T13:44:11;8.90;55.40
40534;DHT22;26233;51.894;10.192;2023-12-20T13:46:40;8.90;55.40
40534;DHT22;26233;51.894;10.192;2023-12-20T13:49:07;8.90;55.50
40534;DHT22;26233;51.894;10.192;2023-12-20T13:51:34;8.90;55.50
40534;DHT22;26233;51.894;10.192;2023-12-20T13:54:01;8.90;55.50
40534;DHT22;26233;51.894;10.192;2023-12-20T13:56:30;8.90;55.50
40534;DHT22;26233;51.894;10.192;2023-12-20T13:58:58;8.90;55.40
40534;DHT22;26233;51.894;10.192;2023-12-20T14:01:26;8.90;55.50
40534;DHT22;26233;51.894;10.192;2023-12-20T14:03:53;8.90;55.50
40534;DHT22;26233;51.894;10.192;2023-12-20T14:06:20;8.90;55.50
40534;DHT22;26233;51.894;10.192;2023-12-20T14:08:47;8.90;55.40
40534;DHT22;26233;51.894;10.192;2023-12-20T14:11:14;8.90;55.50
40534;DHT22;26233;51.894;10.192;2023-12-20T14:13:42;8.80;55.30
40534;DHT22;26233;51.894;10.192;2023-12-20T14:16:09;8.80;55.30
40534;DHT22;26233;51.894;10.192;2023-12-20T14:18:38;8.70;55.20
40534;DHT22;26233;51.894;10.192;2023-12-20T14:21:05;8.70;55.30
40534;DHT22;26233;51.894;10.192;2023-12-20T14:23:33;8.70;55.30
40534;DHT22;26233;51.894;10.192;2023-12-20T14:26:00;8.60;55.20
40534;DHT22;26233;51.894;10.192;2023-12-20T14:28:27;8.60;55.30
40534;DHT22;26233;51.894;10.192;2023-12-20T14:30:56;8.60;55.40
40534;DHT22;26233;51.894;10.192;2023-12-20T14:33:23;8.50;55.30
40534;DHT22;26233;51.894;10.192;2023-12-20T14:35:51;8.50;55.20
40534;DHT22;26233;51.894;10.192;2023-12-20T14:38:18;8.50;55.20
40534;DHT22;26233;51.894;10.192;2023-12-20T14:40:45;8.50;55.10
40534;DHT22;26233;51.894;10.192;2023-12-20T14:43:12;8.50;55.00
40534;DHT22;26233;51.894;10.192;2023-12-20T14:45:39;8.40;54.70
40534;DHT22;26233;51.894;10.192;2023-12-20T14:48:08;8.40;54.60
40534;DHT22;26233;51.894;10.192;2023-12-20T14:50:35;8.30;54.60
40534;DHT22;26233;51.894;10.192;2023-12-20T14:53:02;8.30;54.60
40534;DHT22;26233;51.894;10.192;2023-12-20T14:55:30;8.30;54.60
40534;DHT22;26233;51.894;10.192;2023-12-20T14:57:57;8.30;55.20
40534;DHT22;26233;51.894;10.192;2023-12-20T15:00:23;8.20;54.50
40534;DHT22;26233;51.894;10.192;2023-12-20T15:02:50;8.10;54.50
40534;DHT22;26233;51.894;10.192;2023-12-20T15:05:20;8.20;54.60
40534;DHT22;26233;51.894;10.192;2023-12-20T15:07:47;8.10;54.50
40534;DHT22;26233;51.894;10.192;2023-12-20T15:10:15;8.10;54.60
40534;DHT22;26233;51.894;10.192;2023-12-20T15:12:43;8.10;54.70
40534;DHT22;26233;51.894;10.192;2023-12-20T15:15:11;8.00;54.60
40534;DHT22;26233;51.894;10.192;2023-12-20T15:17:38;8.10;54.80
40534;DHT22;26233;51.894;10.192;2023-12-20T15:20:06;8.10;54.80
40534;DHT22;26233;51.894;10.192;2023-12-20T15:22:36;8.10;54.80
40534;DHT22;26233;51.894;10.192;2023-12-20T15:25:05;8.10;54.80
40534;DHT22;26233;51.894;10.192;2023-12-20T15:27:33;8.10;54.70
40534;DHT22;26233;51.894;10.192;2023-12-20T15:30:03;8.10;54.50
40534;DHT22;26233;51.894;10.192;2023-12-20T15:32:31;8.10;54.50
40534;DHT22;26233;51.894;10.192;2023-12-20T15:34:59;8.00;54.50